Accueil
METAR-TAF:

METAR-TAF

Aéroports :

Wattisham, Angleterre

latitude: 52-07N, longitude: 000-58E, altitude: 87 m

Observation

Le bulletin a été fait il y a 1 heure et 6 minutes, à 20:50 UTC
Vent 2 kt de sud-ouest
Température 18°C
Humidité 73%
Pression 1024 hPa
Visibilité 10 km ou plus

METAR: EGUW 222050Z AUTO 22002KT 9999 NCD 18/13 Q1024

Heure: 22:56 (21:56 UTC)

Prévision

Le bulletin a été fait il y a 5 heures et 3 minutes, à 16:53 UTC
Prévision valable du 22 à 18 UTC au 22 à 24 UTC
Vent 12 kt de ouest/sud-ouest
Visibilité 10 km ou plus
Quelques nuages à une hauteur de 4500 ft

TAF: EGUW 221653Z 2218/2224 24012KT 9999 FEW045

Observations et prévisions météorologiques de plus de 4000 aéroports (messages METAR et TAF).

Les stations disponibles sont représentées par des disques jaunes et rouges sur la carte.

Passer la souris dessus pour voir le nom de la station.

Cliquer dessus pour voir les observations et prévisions météorologiques.

Pour changer de carte: cliquez sur les boutons verts avec une croix noire pour zoomer, sur le bouton vert avec un tiret pour effectuer un zoom arrière, ou sur les flèches vertes pour les cartes adjacentes.


METAR-TAF: